createdAt,value
2023-05-04T00:01:51.569Z,5.15
2023-05-04T00:06:54.537Z,5.07
2023-05-04T00:11:57.704Z,5.07
2023-05-04T00:17:03.122Z,5.15
2023-05-04T00:22:06.346Z,5.43
2023-05-04T00:27:10.292Z,5.27
2023-05-04T00:32:14.431Z,5.13
2023-05-04T00:37:17.680Z,4.72
2023-05-04T00:42:20.496Z,5.13
2023-05-04T00:47:25.224Z,5.37
2023-05-04T00:52:28.851Z,5.17
2023-05-04T00:57:31.892Z,5.47
2023-05-04T01:02:36.431Z,5.28
2023-05-04T01:07:42.957Z,5.03
2023-05-04T01:12:49.178Z,5.50
2023-05-04T01:17:53.350Z,4.93
2023-05-04T01:22:57.516Z,4.90
2023-05-04T01:28:05.189Z,4.50
2023-05-04T01:33:08.236Z,4.88
2023-05-04T01:38:14.784Z,5.03
2023-05-04T01:43:17.586Z,4.57
2023-05-04T01:48:20.437Z,5.38
2023-05-04T01:53:24.725Z,4.80
2023-05-04T01:58:27.597Z,5.13
2023-05-04T02:03:31.445Z,5.07
2023-05-04T02:08:35.757Z,4.50
2023-05-04T02:13:38.558Z,4.40
2023-05-04T02:18:41.804Z,4.85
2023-05-04T02:23:46.132Z,5.68
2023-05-04T02:28:49.018Z,4.70
2023-05-04T02:33:52.184Z,4.78
2023-05-04T02:38:56.407Z,5.97
2023-05-04T02:43:59.211Z,5.05
2023-05-04T02:49:02.265Z,4.57
2023-05-04T02:54:06.667Z,4.97
2023-05-04T02:59:09.638Z,5.07
2023-05-04T03:04:12.456Z,5.45
2023-05-04T03:09:16.829Z,5.60
2023-05-04T03:14:19.658Z,4.75
2023-05-04T03:19:22.564Z,5.05
2023-05-04T03:24:27.015Z,5.93
2023-05-04T03:29:30.007Z,6.25
2023-05-04T03:34:33.920Z,5.97
2023-05-04T03:39:41.835Z,6.17
2023-05-04T03:44:45.296Z,5.93
2023-05-04T03:49:48.681Z,6.55
2023-05-04T03:54:52.982Z,6.57
2023-05-04T03:59:57.826Z,5.97
2023-05-04T04:05:01.859Z,6.82
2023-05-04T04:10:07.801Z,6.20
2023-05-04T04:15:11.787Z,6.88
2023-05-04T04:20:14.663Z,6.53
2023-05-04T04:25:19.051Z,7.45
2023-05-04T04:30:21.996Z,7.65
2023-05-04T04:35:24.861Z,7.07
2023-05-04T04:40:29.092Z,6.73
2023-05-04T04:45:33.695Z,6.90
2023-05-04T04:50:39.574Z,7.40
2023-05-04T04:55:43.876Z,7.55
2023-05-04T05:00:47.536Z,7.00
2023-05-04T05:05:50.596Z,7.35
2023-05-04T05:10:54.826Z,7.10
2023-05-04T05:15:57.759Z,6.33
2023-05-04T05:21:00.816Z,6.57
2023-05-04T05:26:05.079Z,5.93
2023-05-04T05:31:08.117Z,6.40
2023-05-04T05:36:11.123Z,6.15
2023-05-04T05:41:16.106Z,5.60
2023-05-04T05:46:19.375Z,6.73
2023-05-04T05:51:22.231Z,6.40
2023-05-04T05:56:26.478Z,6.88
2023-05-04T06:01:29.375Z,5.83
2023-05-04T06:06:32.227Z,5.80
2023-05-04T06:11:36.447Z,6.15
2023-05-04T06:16:39.610Z,6.22
2023-05-04T06:21:42.528Z,6.27
2023-05-04T06:26:46.757Z,6.53
2023-05-04T06:31:49.658Z,6.50
2023-05-04T06:36:52.514Z,5.65
2023-05-04T06:41:57.119Z,6.43
2023-05-04T06:47:01.955Z,5.70
2023-05-04T06:52:05.305Z,5.90
2023-05-04T06:57:09.401Z,5.93
2023-05-04T07:02:12.183Z,6.05
2023-05-04T07:07:15.157Z,5.68
2023-05-04T07:12:19.644Z,5.22
2023-05-04T07:17:25.314Z,6.30
2023-05-04T07:22:28.519Z,5.53
2023-05-04T07:27:34.629Z,5.93
2023-05-04T07:32:37.419Z,5.53
2023-05-04T07:37:40.321Z,5.78
2023-05-04T07:42:44.524Z,6.05
2023-05-04T07:47:47.435Z,5.72
2023-05-04T07:52:50.697Z,5.75
2023-05-04T07:57:54.879Z,6.27
2023-05-04T08:02:58.241Z,6.60
2023-05-04T08:08:01.084Z,6.27
2023-05-04T08:13:05.370Z,5.97
2023-05-04T08:18:08.367Z,6.95
2023-05-04T08:23:11.385Z,5.95
2023-05-04T08:28:15.597Z,6.45
2023-05-04T08:33:18.476Z,6.32
2023-05-04T08:38:21.390Z,5.78
2023-05-04T08:43:25.722Z,5.90
2023-05-04T08:48:28.657Z,6.07
2023-05-04T08:53:32.529Z,5.90
2023-05-04T08:58:38.066Z,6.43
2023-05-04T09:03:41.397Z,6.68
2023-05-04T09:08:44.556Z,6.13
2023-05-04T09:13:48.813Z,6.53
2023-05-04T09:18:51.746Z,7.03
2023-05-04T09:23:54.608Z,6.75
2023-05-04T09:29:10.879Z,6.25
2023-05-04T09:34:15.102Z,7.38
2023-05-04T09:39:17.959Z,6.70
2023-05-04T09:44:23.396Z,6.65
2023-05-04T09:49:33.006Z,6.47
2023-05-04T09:54:38.791Z,6.70
2023-05-04T09:59:43.496Z,7.15
2023-05-04T10:04:46.696Z,7.20
2023-05-04T10:09:49.875Z,7.65
2023-05-04T10:14:54.248Z,6.68
2023-05-04T10:20:09.506Z,6.93
2023-05-04T10:25:31.953Z,7.05
2023-05-04T10:30:36.206Z,7.50
2023-05-04T10:35:39.249Z,7.40
2023-05-04T10:40:42.477Z,7.38
2023-05-04T10:45:46.772Z,6.53
2023-05-04T10:50:50.894Z,7.40
2023-05-04T10:55:53.805Z,6.72
2023-05-04T11:00:58.051Z,7.17
2023-05-04T11:06:00.945Z,6.83
2023-05-04T11:11:06.692Z,7.50
2023-05-04T11:16:12.560Z,7.32
2023-05-04T11:21:24.912Z,6.97
2023-05-04T11:26:28.422Z,7.40
2023-05-04T11:31:32.716Z,6.47
2023-05-04T11:36:38.355Z,6.90
2023-05-04T11:41:41.338Z,7.35
2023-05-04T11:46:45.666Z,7.40
2023-05-04T11:51:48.847Z,7.47
2023-05-04T11:56:51.668Z,8.27
2023-05-04T12:01:57.046Z,7.82
2023-05-04T12:07:01.775Z,7.45
2023-05-04T12:12:05.122Z,8.35
2023-05-04T12:17:09.258Z,7.65
2023-05-04T12:22:12.790Z,7.15
2023-05-04T12:27:16.621Z,7.72
2023-05-04T12:32:21.414Z,8.77
2023-05-04T12:37:25.134Z,7.73
2023-05-04T12:42:28.051Z,6.85
2023-05-04T12:47:32.182Z,7.60
2023-05-04T12:52:35.058Z,6.93
2023-05-04T12:57:37.923Z,6.87
2023-05-04T13:02:42.328Z,7.05
2023-05-04T13:07:45.403Z,6.87
2023-05-04T13:12:49.036Z,6.30
2023-05-04T13:17:53.855Z,6.83
2023-05-04T13:22:58.299Z,6.75
2023-05-04T13:28:01.546Z,6.97
2023-05-04T13:33:13.433Z,7.27
2023-05-04T13:38:24.478Z,6.95
2023-05-04T13:43:27.340Z,6.60
2023-05-04T13:48:32.902Z,6.97
2023-05-04T13:53:35.689Z,6.45
2023-05-04T13:58:38.728Z,6.53
2023-05-04T14:03:43.054Z,7.00
2023-05-04T14:08:45.936Z,7.00
2023-05-04T14:13:48.759Z,6.05
2023-05-04T14:18:52.880Z,7.27
2023-05-04T14:23:55.891Z,6.10
2023-05-04T14:28:58.694Z,6.35
2023-05-04T14:34:03.270Z,6.47
2023-05-04T14:39:06.173Z,6.50
2023-05-04T14:44:08.995Z,6.47
2023-05-04T14:49:21.489Z,7.17
2023-05-04T14:54:31.909Z,5.38
2023-05-04T14:59:34.701Z,6.40
2023-05-04T15:04:38.938Z,7.10
2023-05-04T15:09:41.745Z,6.53
2023-05-04T15:14:44.797Z,6.65
2023-05-04T15:19:49.040Z,5.78
2023-05-04T15:24:53.650Z,5.83
2023-05-04T15:29:56.438Z,5.72
2023-05-04T15:35:05.133Z,5.10
2023-05-04T15:40:10.500Z,4.95
2023-05-04T15:45:13.691Z,4.65
2023-05-04T15:50:17.990Z,4.75
2023-05-04T15:55:25.933Z,5.40
2023-05-04T16:00:29.691Z,5.00
2023-05-04T16:05:33.933Z,5.60
2023-05-04T16:10:37.288Z,5.13
2023-05-04T16:15:40.526Z,5.77
2023-05-04T16:20:44.845Z,6.37
2023-05-04T16:25:49.470Z,6.97
2023-05-04T16:30:52.693Z,6.10
2023-05-04T16:35:57.440Z,6.95
2023-05-04T16:41:00.273Z,7.27
2023-05-04T16:46:04.382Z,7.50
2023-05-04T16:51:09.058Z,7.05
2023-05-04T16:56:18.129Z,6.60
2023-05-04T17:01:21.059Z,6.70
2023-05-04T17:06:25.874Z,7.22
2023-05-04T17:11:28.766Z,6.80
2023-05-04T17:16:31.632Z,6.75
2023-05-04T17:21:37.555Z,6.47
2023-05-04T17:26:40.521Z,5.95
2023-05-04T17:31:43.711Z,5.83
2023-05-04T17:36:48.222Z,5.80
2023-05-04T17:41:51.467Z,5.97
2023-05-04T17:46:54.413Z,5.85
2023-05-04T17:51:59.649Z,5.77
2023-05-04T17:57:02.726Z,5.63
2023-05-04T18:02:06.046Z,5.90
2023-05-04T18:07:10.727Z,5.53
2023-05-04T18:12:13.816Z,6.45
2023-05-04T18:17:16.790Z,5.00
2023-05-04T18:22:21.031Z,6.07
2023-05-04T18:27:23.973Z,6.55
2023-05-04T18:32:27.408Z,5.82
2023-05-04T18:37:32.215Z,6.15
2023-05-04T18:42:35.401Z,6.03
2023-05-04T18:47:38.680Z,6.53
2023-05-04T18:52:43.169Z,5.45
2023-05-04T18:57:46.486Z,5.78
2023-05-04T19:02:49.295Z,6.80
2023-05-04T19:07:53.645Z,6.45
2023-05-04T19:12:56.594Z,6.07
2023-05-04T19:17:59.724Z,6.63
2023-05-04T19:23:04.107Z,6.85
2023-05-04T19:28:08.973Z,6.53
2023-05-04T19:33:11.883Z,6.57
2023-05-04T19:38:16.099Z,6.45
2023-05-04T19:43:19.066Z,5.28
2023-05-04T19:48:21.994Z,6.43
2023-05-04T19:53:26.168Z,6.05
2023-05-04T19:58:30.900Z,6.90
2023-05-04T20:03:33.800Z,5.95
2023-05-04T20:08:37.891Z,6.13
2023-05-04T20:13:40.852Z,5.40
2023-05-04T20:18:43.676Z,6.23
2023-05-04T20:23:47.778Z,6.70
2023-05-04T20:28:50.555Z,6.22
2023-05-04T20:33:53.390Z,6.57
2023-05-04T20:38:57.749Z,5.87
2023-05-04T20:44:00.797Z,6.07
2023-05-04T20:49:03.613Z,5.90
2023-05-04T20:54:07.779Z,6.40
2023-05-04T20:59:10.607Z,6.40
2023-05-04T21:04:14.800Z,6.00
2023-05-04T21:09:18.944Z,6.55
2023-05-04T21:14:21.750Z,6.15
2023-05-04T21:19:24.644Z,6.30
2023-05-04T21:24:29.990Z,6.45
2023-05-04T21:29:32.813Z,6.25
2023-05-04T21:34:35.617Z,6.57
2023-05-04T21:39:39.803Z,6.87
2023-05-04T21:44:42.840Z,7.20
2023-05-04T21:49:45.620Z,7.32
2023-05-04T21:54:50.147Z,7.20
2023-05-04T21:59:52.946Z,6.22
2023-05-04T22:04:55.700Z,6.68
2023-05-04T22:09:59.782Z,7.10
2023-05-04T22:15:02.618Z,5.90
2023-05-04T22:20:06.396Z,6.30
2023-05-04T22:25:11.055Z,6.63
2023-05-04T22:30:14.717Z,6.68
2023-05-04T22:35:18.049Z,6.40
2023-05-04T22:40:22.528Z,6.18
2023-05-04T22:45:25.412Z,7.00
2023-05-04T22:50:28.770Z,6.75
2023-05-04T22:55:33.002Z,6.20
2023-05-04T23:00:36.582Z,6.82
2023-05-04T23:05:39.431Z,6.57
2023-05-04T23:10:46.720Z,7.15
2023-05-04T23:15:49.565Z,6.83
2023-05-04T23:20:52.545Z,7.37
2023-05-04T23:25:57.066Z,6.47
2023-05-04T23:30:59.854Z,6.50
2023-05-04T23:36:02.699Z,6.88
2023-05-04T23:41:06.967Z,7.25
2023-05-04T23:46:09.857Z,6.63
2023-05-04T23:51:12.831Z,7.35
2023-05-04T23:56:17.510Z,7.50
